地図

経路データ

SID SEASON NUMBER BASIN SUBBASIN NAME ISO_TIME NATURE LAT LON WMO_WIND WMO_PRES WMO_AGENCY TRACK_TYPE DIST2LAND LANDFALL IFLAG USA_AGENCY USA_ATCF_ID USA_LAT USA_LON USA_RECORD USA_STATUS USA_WIND USA_PRES USA_SSHS USA_R34_NE USA_R34_SE USA_R34_SW USA_R34_NW USA_R50_NE USA_R50_SE USA_R50_SW USA_R50_NW USA_R64_NE USA_R64_SE USA_R64_SW USA_R64_NW USA_POCI USA_ROCI USA_RMW USA_EYE TOKYO_LAT TOKYO_LON TOKYO_GRADE TOKYO_WIND TOKYO_PRES TOKYO_R50_DIR TOKYO_R50_LONG TOKYO_R50_SHORT TOKYO_R30_DIR TOKYO_R30_LONG TOKYO_R30_SHORT TOKYO_LAND CMA_LAT CMA_LON CMA_CAT CMA_WIND CMA_PRES HKO_LAT HKO_LON HKO_CAT HKO_WIND HKO_PRES NEWDELHI_LAT NEWDELHI_LON NEWDELHI_GRADE NEWDELHI_WIND NEWDELHI_PRES NEWDELHI_CI NEWDELHI_DP NEWDELHI_POCI REUNION_LAT REUNION_LON REUNION_TYPE REUNION_WIND REUNION_PRES REUNION_TNUM REUNION_CI REUNION_RMW REUNION_R34_NE REUNION_R34_SE REUNION_R34_SW REUNION_R34_NW REUNION_R50_NE REUNION_R50_SE REUNION_R50_SW REUNION_R50_NW REUNION_R64_NE REUNION_R64_SE REUNION_R64_SW REUNION_R64_NW BOM_LAT BOM_LON BOM_TYPE BOM_WIND BOM_PRES BOM_TNUM BOM_CI BOM_RMW BOM_R34_NE BOM_R34_SE BOM_R34_SW BOM_R34_NW BOM_R50_NE BOM_R50_SE BOM_R50_SW BOM_R50_NW BOM_R64_NE BOM_R64_SE BOM_R64_SW BOM_R64_NW BOM_ROCI BOM_POCI BOM_EYE BOM_POS_METHOD BOM_PRES_METHOD NADI_LAT NADI_LON NADI_CAT NADI_WIND NADI_PRES WELLINGTON_LAT WELLINGTON_LON WELLINGTON_WIND WELLINGTON_PRES DS824_LAT DS824_LON DS824_STAGE DS824_WIND DS824_PRES TD9636_LAT TD9636_LON TD9636_STAGE TD9636_WIND TD9636_PRES TD9635_LAT TD9635_LON TD9635_WIND TD9635_PRES TD9635_ROCI NEUMANN_LAT NEUMANN_LON NEUMANN_CLASS NEUMANN_WIND NEUMANN_PRES MLC_LAT MLC_LON MLC_CLASS MLC_WIND MLC_PRES USA_GUST BOM_GUST BOM_GUST_PER REUNION_GUST REUNION_GUST_PER USA_SEAHGT USA_SEARAD_NE USA_SEARAD_SE USA_SEARAD_SW USA_SEARAD_NW STORM_SPEED STORM_DIR
1984270N23287 1984 89 NA NA ISIDORE 1984-09-25 12:00:00 TS 23.4000 -73.0000 30 1003 hurdat_atl main 245 245 O_____________ hurdat_atl AL151984 23.4000 -73.0000 TD 30 1003 -1 10 302
1984270N23287 1984 89 NA NA ISIDORE 1984-09-25 15:00:00 TS 23.6552 -73.4422 main 280 280 P_____________ AL151984 23.6552 -73.4422 TD 30 1003 -1 10 301
1984270N23287 1984 89 NA NA ISIDORE 1984-09-25 18:00:00 TS 23.9000 -73.9000 30 1003 hurdat_atl main 310 310 O_____________ hurdat_atl AL151984 23.9000 -73.9000 TD 30 1003 -1 10 298
1984270N23287 1984 89 NA NA ISIDORE 1984-09-25 21:00:00 TS 24.1223 -74.3850 main 337 284 P_____________ AL151984 24.1223 -74.3850 TD 30 1002 -1 10 294
1984270N23287 1984 89 NA NA ISIDORE 1984-09-26 00:00:00 TS 24.3000 -74.9000 30 1002 hurdat_atl main 284 232 O_____________ hurdat_atl AL151984 24.3000 -74.9000 TD 30 1002 -1 10 287
1984270N23287 1984 89 NA NA ISIDORE 1984-09-26 03:00:00 TS 24.4150 -75.4502 main 222 171 P_____________ AL151984 24.4150 -75.4502 TD 30 1002 -1 10 281
1984270N23287 1984 89 NA NA ISIDORE 1984-09-26 06:00:00 TS 24.5000 -76.0000 30 1002 hurdat_atl main 171 121 O_____________ hurdat_atl AL151984 24.5000 -76.0000 TD 30 1002 -1 10 280
1984270N23287 1984 89 NA NA ISIDORE 1984-09-26 09:00:00 TS 24.5925 -76.5301 main 121 74 P_____________ AL151984 24.5925 -76.5301 TD 35 1001 0 9 282
1984270N23287 1984 89 NA NA ISIDORE 1984-09-26 12:00:00 TS 24.7000 -77.0000 40 1001 hurdat_atl main 74 41 O_____________ hurdat_atl AL151984 24.7000 -77.0000 TS 40 1001 0 8 288
1984270N23287 1984 89 NA NA ISIDORE 1984-09-26 15:00:00 TS 24.8347 -77.3726 main 41 23 P_____________ AL151984 24.8347 -77.3726 TS 42 1000 0 7 295
1984270N23287 1984 89 NA NA ISIDORE 1984-09-26 18:00:00 TS 25.0000 -77.7000 45 1000 hurdat_atl main 23 0 O_____________ hurdat_atl AL151984 25.0000 -77.7000 TS 45 1000 0 7 300
1984270N23287 1984 89 NA NA ISIDORE 1984-09-26 21:00:00 TS 25.1924 -78.0500 main 11 11 P_____________ AL151984 25.1924 -78.0500 TS 45 999 0 8 302
1984270N23287 1984 89 NA NA ISIDORE 1984-09-27 00:00:00 TS 25.4000 -78.4000 45 999 hurdat_atl main 45 45 O_____________ hurdat_atl AL151984 25.4000 -78.4000 TS 45 999 0 7 302
1984270N23287 1984 89 NA NA ISIDORE 1984-09-27 03:00:00 TS 25.5849 -78.7503 main 89 89 P_____________ AL151984 25.5849 -78.7503 TS 47 999 0 7 302
1984270N23287 1984 89 NA NA ISIDORE 1984-09-27 06:00:00 TS 25.8000 -79.1000 50 1000 hurdat_atl main 100 69 O_____________ hurdat_atl AL151984 25.8000 -79.1000 TS 50 1000 0 8 307
1984270N23287 1984 89 NA NA ISIDORE 1984-09-27 09:00:00 TS 26.0624 -79.4503 main 59 29 P_____________ AL151984 26.0624 -79.4503 TS 50 1000 0 9 314
1984270N23287 1984 89 NA NA ISIDORE 1984-09-27 12:00:00 TS 26.4000 -79.8000 50 1000 hurdat_atl main 29 0 O_____________ hurdat_atl AL151984 26.4000 -79.8000 TS 50 1000 0 10 323
1984270N23287 1984 89 NA NA ISIDORE 1984-09-27 15:00:00 TS 26.8572 -80.1275 main 0 0 P_____________ AL151984 26.8572 -80.1275 TS 47 1000 0 11 325
1984270N23287 1984 89 NA NA ISIDORE 1984-09-27 18:00:00 TS 27.3000 -80.5000 45 1001 hurdat_atl main 0 0 O_____________ hurdat_atl AL151984 27.3000 -80.5000 TS 45 1001 0 10 313
1984270N23287 1984 89 NA NA ISIDORE 1984-09-27 21:00:00 TS 27.5652 -80.9930 main 0 0 P_____________ AL151984 27.5652 -80.9930 TS 45 1001 0 10 299
1984270N23287 1984 89 NA NA ISIDORE 1984-09-28 00:00:00 TS 27.8000 -81.5000 45 1002 hurdat_atl main 0 0 O_____________ hurdat_atl AL151984 27.8000 -81.5000 TS 45 1002 0 10 302
1984270N23287 1984 89 NA NA ISIDORE 1984-09-28 03:00:00 TS 28.1126 -81.9895 main 0 0 P_____________ AL151984 28.1126 -81.9895 TS 45 1002 0 10 315
1984270N23287 1984 89 NA NA ISIDORE 1984-09-28 06:00:00 TS 28.5000 -82.3000 45 1002 hurdat_atl main 0 0 O_____________ hurdat_atl AL151984 28.5000 -82.3000 TS 45 1002 0 9 344
1984270N23287 1984 89 NA NA ISIDORE 1984-09-28 09:00:00 TS 29.0074 -82.2759 main 0 0 P_____________ AL151984 29.0074 -82.2759 TS 45 1002 0 10 10
1984270N23287 1984 89 NA NA ISIDORE 1984-09-28 12:00:00 TS 29.5000 -82.1000 45 1002 hurdat_atl main 0 0 O_____________ hurdat_atl AL151984 29.5000 -82.1000 TS 45 1002 0 9 15
1984270N23287 1984 89 NA NA ISIDORE 1984-09-28 15:00:00 TS 29.8299 -82.0222 main 0 0 P_____________ AL151984 29.8299 -82.0222 TS 45 1001 0 6 16
1984270N23287 1984 89 NA NA ISIDORE 1984-09-28 18:00:00 TS 30.1000 -81.9000 45 1001 hurdat_atl main 0 0 O_____________ hurdat_atl AL151984 30.1000 -81.9000 TS 45 1001 0 6 26
1984270N23287 1984 89 NA NA ISIDORE 1984-09-28 21:00:00 TS 30.3998 -81.7023 main 0 0 P_____________ AL151984 30.3998 -81.7023 TS 45 1002 0 7 36
1984270N23287 1984 89 NA NA ISIDORE 1984-09-29 00:00:00 TS 30.7000 -81.4000 45 1004 hurdat_atl main 0 0 O_____________ hurdat_atl AL151984 30.7000 -81.4000 TS 45 1004 0 8 46
1984270N23287 1984 89 NA NA ISIDORE 1984-09-29 03:00:00 TS 30.9773 -81.0019 main 38 38 P_____________ AL151984 30.9773 -81.0019 TS 45 1004 0 10 52
1984270N23287 1984 89 NA NA ISIDORE 1984-09-29 06:00:00 TS 31.3000 -80.5000 45 1005 hurdat_atl main 74 72 O_____________ hurdat_atl AL151984 31.3000 -80.5000 TS 45 1005 0 12 49
1984270N23287 1984 89 NA NA ISIDORE 1984-09-29 09:00:00 TS 31.7497 -79.9453 main 93 71 P_____________ AL151984 31.7497 -79.9453 TS 45 1004 0 14 49
1984270N23287 1984 89 NA NA ISIDORE 1984-09-29 12:00:00 TS 32.2000 -79.3000 45 1004 hurdat_atl main 79 79 O_____________ hurdat_atl AL151984 32.2000 -79.3000 TS 45 1004 0 14 57
1984270N23287 1984 89 NA NA ISIDORE 1984-09-29 15:00:00 TS 32.5073 -78.5788 main 93 93 P_____________ AL151984 32.5073 -78.5788 TS 45 1003 0 14 65
1984270N23287 1984 89 NA NA ISIDORE 1984-09-29 18:00:00 TS 32.8000 -77.8000 45 1002 hurdat_atl main 124 110 O_____________ hurdat_atl AL151984 32.8000 -77.8000 TS 45 1002 0 15 62
1984270N23287 1984 89 NA NA ISIDORE 1984-09-29 21:00:00 TS 33.1918 -77.0223 main 121 121 P_____________ AL151984 33.1918 -77.0223 TS 47 1001 0 16 59
1984270N23287 1984 89 NA NA ISIDORE 1984-09-30 00:00:00 TS 33.6000 -76.2000 50 1000 hurdat_atl main 125 114 O_____________ hurdat_atl AL151984 33.6000 -76.2000 TS 50 1000 0 16 61
1984270N23287 1984 89 NA NA ISIDORE 1984-09-30 03:00:00 TS 33.9720 -75.3221 main 134 134 P_____________ AL151984 33.9720 -75.3221 TS 45 1002 0 16 65
1984270N23287 1984 89 NA NA ISIDORE 1984-09-30 06:00:00 TS 34.3000 -74.4000 40 1005 hurdat_atl main 185 185 O_____________ hurdat_atl AL151984 34.3000 -74.4000 TS 40 1005 0 16 69
1984270N23287 1984 89 NA NA ISIDORE 1984-09-30 09:00:00 TS 34.5641 -73.4714 main 225 225 P_____________ AL151984 34.5641 -73.4714 TS 40 1006 0 16 72
1984270N23287 1984 89 NA NA ISIDORE 1984-09-30 12:00:00 TS 34.8000 -72.5000 40 1007 hurdat_atl main 293 293 O_____________ hurdat_atl AL151984 34.8000 -72.5000 TS 40 1007 0 17 73
1984270N23287 1984 89 NA NA ISIDORE 1984-09-30 15:00:00 TS 35.0482 -71.5090 main 372 369 P_____________ AL151984 35.0482 -71.5090 TS 40 1007 0 18 74
1984270N23287 1984 89 NA NA ISIDORE 1984-09-30 18:00:00 TS 35.3000 -70.4000 40 1007 hurdat_atl main 463 463 O_____________ hurdat_atl AL151984 35.3000 -70.4000 TS 40 1007 0 20 76
1984270N23287 1984 89 NA NA ISIDORE 1984-09-30 21:00:00 TS 35.5424 -69.0941 main 577 577 P_____________ AL151984 35.5424 -69.0941 TS 35 1007 0 22 77
1984270N23287 1984 89 NA NA ISIDORE 1984-10-01 00:00:00 TS 35.8000 -67.7000 30 1007 hurdat_atl main 685 683 O_____________ hurdat_atl AL151984 35.8000 -67.7000 TD 30 1007 -1 23 76
1984270N23287 1984 89 NA NA ISIDORE 1984-10-01 03:00:00 TS 36.1055 -66.3650 main 696 696 P_____________ AL151984 36.1055 -66.3650 TD 30 1007 -1 23 75
1984270N23287 1984 89 NA NA ISIDORE 1984-10-01 06:00:00 TS 36.4000 -65.0000 30 1008 hurdat_atl main 730 730 O_____________ hurdat_atl AL151984 36.4000 -65.0000 TD 30 1008 -1 23 77
1984270N23287 1984 89 NA NA ISIDORE 1984-10-01 09:00:00 TS 36.6265 -63.5708 main 781 775 P_____________ AL151984 36.6265 -63.5708 TD 27 1010 -1 24 80
1984270N23287 1984 89 NA NA ISIDORE 1984-10-01 12:00:00 TS 36.8000 -62.1000 25 1012 hurdat_atl main 793 O_____________ hurdat_atl AL151984 36.8000 -62.1000 TD 25 1012 -1 24 82

IBTrACS Databaseについて

本データベースは、米国NOAAが公開する1842年以降の世界の熱帯低気圧のベストトラックデータアーカイブInternational Best Track Archive for Climate Stewardship (IBTrACS)を、ウェブで閲覧しやすい形式に変換したものです。

最終更新日:2021-11-26